الصفحة الرئيسية
METAR-TAF:

METAR-TAF

مطار :

Kédougou, السنغال

دائرة عرض: 12-34N, خط طول: 012-13W, ارتفاع: 178 متر

مراقبة الطقس الحالي

تاريخ ووقت الإصدار 1ساعة و 4 دقيقة قبل الساعة 11:00UTC
ريح 8 عقدة من الغرب
درجة الحرارة 30°درجة مئوية
الرطوبة 75%
ضغط 1013 hPa
الرؤية 10 كم أو أكثر
غيوم مفككة على ارتفاع 1300 قدم
غيوم متفرقة على ارتفاع 1500 قدم

METAR: GOTK 201100Z 28008KT 9999 BKN013 SCT015 30/25 Q1013

زمن: 12:04 (12:04 UTC)


TAF: مفقودة

أرصاد الطقس والتوقعات من أكثر من 4000 مطار (تقارير الطقس للمطار METAR والتنبؤ بالطقس بالمطارTAF).

المحطات المتاحة هي النقط الصفراء والحمراء على الخريطة.

حرك المؤشر فوق النقطة لمعرفة اسم المحطة.

ثم انقر لمعرفة أرصاد وتوقعات الطقس.

لتغيير الخارطة: اضغط على الأزرار الخضراء مع رمز الصليب الأسود للتكبير. على الزر الأخضر مع شرطة للتصغير، أو على الأسهم الخضراء للخرائط المجاورة.


METAR-TAF: